Detall de PIREP

Printer-friendly versionPDF version

[2013/04/19 09:59:00]
Flight IATA:CT0001
Pilot Number:042
Company ICAO:CAT
Aircraft Type:C750/F
PAX:3
Departing Airport: LEGE
Destination Airport: LEPA
Alternate Airport:LEBL
Online: VATSIM
Route:BEXUR A27 KENAS
Flight Level:F190
No Slew and time accel
No pause
Crash detect
Detect pilot in Cockpit between each 30 and 45 minutes
09:59 Zero fuel Weight: 22920 Lbs, Fuel Weight: 12982 Lbs
09:59 VATSIM:LEGE 190930Z 08003KT 010V140 9999 FEW045 BKN090 18/11 Q1020
09:59 VATSIM:LEPA 190930Z 06008KT 010V130 9999 FEW030 22/12 Q1020 NOSIG
09:59 VOICE CATALONIAN
10:08 Parking Brakes off
10:14 Take-off
10:14 Take off Weight: 35743 Lbs
10:14 Wind: 200º @ 010 Knots Heading: 196º
10:14 POS N41º 54´ 01´´ E002º 45´ 37´´
10:14 Gear Up: 155 Knots
10:14 Flaps:4 at 155 Knots
10:14 Flaps:3 at 164 Knots
10:15 Flaps:2 at 181 Knots
10:18 Flaps:0 at 245 Knots
10:20 TOC
10:20 Fuel Weight: 12470 Lb
10:20 TOD
10:20 Fuel Weight: 12466 Lb
10:20 TOC
10:20 Fuel Weight: 12464 Lb
10:29 Wind:307º@042 Knots Heading: 186º Ground Speed: 465 Knots Altitude 19209 ft
10:33 TOD
10:33 Fuel Weight: 12096 Lb
10:44 Wind:330º@023 Knots Heading: 257º Ground Speed: 251 Knots Altitude 5485 ft
10:45 Flaps:2 at 217 Knots
10:46 Flaps:3 at 187 Knots
10:46 Gear Down: 192 Knots
10:46 Flaps:4 at 192 Knots
10:50 Flaps:5 at 145 Knots
10:50 TouchDown:Rate -393 ft/min Speed: 111 Knots
10:50 VATSIM:LEPA 191030Z 05011KT 9999 FEW035 23/11 Q1020 NOSIG
10:50 Land
10:50 Wind:229º@008 Knots
10:50 Heading: 058º
10:50 Flight Duration: 00:36
10:50 Landing Weight: 34774 Lbs
10:50 POS N39º 33´ 32´´ E002º 44´ 07´´
11:01 Parking brakes on
11:01 Block to Block Duration: 00:53
11:01 Final Fuel: 11761 Lbls
11:01 Spent Fuel: 1221 Lbls
11:01 Flight Length: 215 NM
11:01 TOD Land Length: 87 NM

Exportar CSV

Powered by Drupal - Modified by Danger4k